createdAt,value
2023-02-16T00:01:19.274Z,101256.41
2023-02-16T00:03:46.631Z,101261.63
2023-02-16T00:06:16.081Z,101260.91
2023-02-16T00:08:44.277Z,101260.72
2023-02-16T00:11:43.283Z,101259.78
2023-02-16T00:14:12.909Z,101275.88
2023-02-16T00:16:40.803Z,101265.22
2023-02-16T00:19:17.952Z,101259.84
2023-02-16T00:21:45.338Z,101265.28
2023-02-16T00:24:12.600Z,101261.72
2023-02-16T00:26:41.119Z,101264.28
2023-02-16T00:29:11.765Z,101265.19
2023-02-16T00:31:40.451Z,101268.66
2023-02-16T00:34:19.395Z,101275.88
2023-02-16T00:36:46.645Z,101273.44
2023-02-16T00:39:13.904Z,101268.91
2023-02-16T00:42:00.988Z,101265.28
2023-02-16T00:44:31.885Z,101262.78
2023-02-16T00:47:02.305Z,101258.28
2023-02-16T00:49:29.688Z,101254.69
2023-02-16T00:51:57.226Z,101254.63
2023-02-16T00:54:24.500Z,101252.97
2023-02-16T00:56:52.117Z,101256.53
2023-02-16T00:59:21.425Z,101254.72
2023-02-16T01:01:49.639Z,101254.78
2023-02-16T01:04:21.741Z,101253.19
2023-02-16T01:07:06.530Z,101253.84
2023-02-16T01:09:51.280Z,101249.34
2023-02-16T01:12:20.952Z,101251.13
2023-02-16T01:14:50.312Z,101245.84
2023-02-16T01:17:17.565Z,101247.88
2023-02-16T01:19:46.154Z,101245.09
2023-02-16T01:22:13.422Z,101246.84
2023-02-16T01:24:40.692Z,101245.84
2023-02-16T01:27:11.187Z,101246.00
2023-02-16T01:29:38.479Z,101243.53
2023-02-16T01:32:05.899Z,101237.31
2023-02-16T01:34:33.253Z,101233.03
2023-02-16T01:37:01.811Z,101239.97
2023-02-16T01:39:29.103Z,101239.09
2023-02-16T01:42:20.658Z,101233.78
2023-02-16T01:44:49.671Z,101233.84
2023-02-16T01:47:27.038Z,101233.94
2023-02-16T01:49:54.295Z,101232.16
2023-02-16T01:52:27.292Z,101224.94
2023-02-16T01:54:57.071Z,101224.22
2023-02-16T01:57:28.527Z,101224.09
2023-02-16T02:00:05.008Z,101226.78
2023-02-16T02:02:35.618Z,101229.38
2023-02-16T02:05:25.237Z,101225.97
2023-02-16T02:07:55.847Z,101218.09
2023-02-16T02:10:27.426Z,101212.88
2023-02-16T02:12:59.548Z,101218.25
2023-02-16T02:15:29.389Z,101215.59
2023-02-16T02:17:56.638Z,101212.88
2023-02-16T02:20:47.323Z,101219.31
2023-02-16T02:23:33.923Z,101213.97
2023-02-16T02:26:13.966Z,101226.31
2023-02-16T02:28:48.449Z,101222.03
2023-02-16T02:31:20.726Z,101224.59
2023-02-16T02:33:54.692Z,101222.88
2023-02-16T02:36:28.841Z,101230.53
2023-02-16T02:39:02.463Z,101233.31
2023-02-16T02:41:47.169Z,101223.69
2023-02-16T02:44:18.574Z,101226.53
2023-02-16T02:46:45.903Z,101223.03
2023-02-16T02:49:13.221Z,101225.59
2023-02-16T02:51:41.103Z,101224.81
2023-02-16T02:54:27.326Z,101220.31
2023-02-16T02:57:14.666Z,101214.09
2023-02-16T03:00:02.890Z,101214.09
2023-02-16T03:02:31.374Z,101210.59
2023-02-16T03:04:59.889Z,101201.69
2023-02-16T03:07:46.496Z,101206.91
2023-02-16T03:10:32.577Z,101206.16
2023-02-16T03:13:00.841Z,101214.25
2023-02-16T03:15:31.065Z,101203.69
2023-02-16T03:18:16.259Z,101213.47
2023-02-16T03:21:02.891Z,101221.22
2023-02-16T03:23:48.105Z,101212.53
2023-02-16T03:26:33.659Z,101218.72
2023-02-16T03:29:22.541Z,101218.69
2023-02-16T03:31:51.876Z,101214.25
2023-02-16T03:34:20.831Z,101212.47
2023-02-16T03:36:49.527Z,101219.59
2023-02-16T03:39:17.244Z,101216.38
2023-02-16T03:41:47.262Z,101221.53
2023-02-16T03:44:14.530Z,101231.47
2023-02-16T03:46:41.981Z,101226.59
2023-02-16T03:49:10.588Z,101233.25
2023-02-16T03:51:38.032Z,101231.41
2023-02-16T03:54:05.605Z,101231.41
2023-02-16T03:56:32.856Z,101237.72
2023-02-16T03:59:00.429Z,101238.53
2023-02-16T04:01:27.686Z,101230.66
2023-02-16T04:03:55.039Z,101223.38
2023-02-16T04:06:23.654Z,101238.53
2023-02-16T04:08:51.689Z,101222.56
2023-02-16T04:11:36.635Z,101226.13
2023-02-16T04:14:03.948Z,101220.06
2023-02-16T04:16:31.233Z,101220.94
2023-02-16T04:18:58.818Z,101222.88
2023-02-16T04:21:27.453Z,101226.44
2023-02-16T04:23:54.734Z,101224.28
2023-02-16T04:26:22.017Z,101221.53
2023-02-16T04:28:49.281Z,101222.06
2023-02-16T04:31:16.799Z,101220.25
2023-02-16T04:33:44.136Z,101225.50
2023-02-16T04:36:11.475Z,101222.94
2023-02-16T04:38:40.048Z,101216.66
2023-02-16T04:41:07.625Z,101215.78
2023-02-16T04:43:35.171Z,101206.78
2023-02-16T04:46:02.594Z,101201.44
2023-02-16T04:48:30.221Z,101217.38
2023-02-16T04:50:57.487Z,101207.72
2023-02-16T04:53:24.765Z,101211.16
2023-02-16T04:55:53.374Z,101204.91
2023-02-16T04:58:20.642Z,101210.28
2023-02-16T05:00:47.915Z,101209.31
2023-02-16T05:03:15.213Z,101211.03
2023-02-16T05:05:42.500Z,101208.44
2023-02-16T05:08:09.754Z,101205.69
2023-02-16T05:10:37.009Z,101207.59
2023-02-16T05:13:23.383Z,101205.06
2023-02-16T05:15:50.687Z,101212.00
2023-02-16T05:18:17.953Z,101209.38
2023-02-16T05:21:11.011Z,101207.56
2023-02-16T05:23:39.018Z,101211.09
2023-02-16T05:26:06.324Z,101203.19
2023-02-16T05:28:34.942Z,101220.91
2023-02-16T05:31:02.511Z,101218.25
2023-02-16T05:33:30.109Z,101217.25
2023-02-16T05:35:57.408Z,101212.94
2023-02-16T05:38:24.685Z,101226.06
2023-02-16T05:40:51.930Z,101227.97
2023-02-16T05:43:19.969Z,101228.91
2023-02-16T05:45:48.534Z,101230.63
2023-02-16T05:48:15.833Z,101232.38
2023-02-16T05:50:43.122Z,101234.06
2023-02-16T05:53:10.567Z,101230.63
2023-02-16T05:55:37.819Z,101237.84
2023-02-16T05:58:05.073Z,101239.41
2023-02-16T06:00:33.696Z,101233.25
2023-02-16T06:03:02.302Z,101234.41
2023-02-16T06:05:29.577Z,101240.47
2023-02-16T06:07:56.918Z,101237.78
2023-02-16T06:10:24.221Z,101241.25
2023-02-16T06:12:51.495Z,101244.66
2023-02-16T06:15:18.744Z,101239.38
2023-02-16T06:17:46.035Z,101242.09
2023-02-16T06:20:14.834Z,101232.41
2023-02-16T06:22:42.113Z,101237.63
2023-02-16T06:25:09.627Z,101234.13
2023-02-16T06:27:36.931Z,101240.25
2023-02-16T06:30:04.719Z,101235.03
2023-02-16T06:32:33.508Z,101235.84
2023-02-16T06:35:00.819Z,101230.38
2023-02-16T06:37:29.405Z,101234.72
2023-02-16T06:39:56.696Z,101233.03
2023-02-16T06:42:23.962Z,101231.22
2023-02-16T06:44:51.240Z,101240.88
2023-02-16T06:47:18.529Z,101246.22
2023-02-16T06:49:45.795Z,101239.88
2023-02-16T06:52:13.198Z,101242.56
2023-02-16T06:54:41.760Z,101238.16
2023-02-16T06:57:09.036Z,101239.81
2023-02-16T06:59:36.355Z,101230.09
2023-02-16T07:02:03.644Z,101237.94
2023-02-16T07:04:30.930Z,101234.25
2023-02-16T07:06:58.173Z,101231.63
2023-02-16T07:09:25.541Z,101223.59
2023-02-16T07:11:54.371Z,101222.81
2023-02-16T07:14:22.147Z,101219.31
2023-02-16T07:16:49.402Z,101219.16
2023-02-16T07:19:16.738Z,101213.75
2023-02-16T07:21:44.076Z,101210.25
2023-02-16T07:24:11.437Z,101204.88
2023-02-16T07:26:39.446Z,101208.41
2023-02-16T07:29:08.248Z,101210.16
2023-02-16T07:31:35.652Z,101213.69
2023-02-16T07:34:03.038Z,101208.38
2023-02-16T07:36:30.326Z,101213.69
2023-02-16T07:38:57.627Z,101215.28
2023-02-16T07:41:24.900Z,101215.19
2023-02-16T07:43:52.325Z,101233.78
2023-02-16T07:46:20.925Z,101239.72
2023-02-16T07:48:48.532Z,101243.31
2023-02-16T07:51:21.006Z,101239.53
2023-02-16T07:53:48.278Z,101229.66
2023-02-16T07:56:19.576Z,101229.41
2023-02-16T07:58:47.341Z,101228.38
2023-02-16T08:01:15.995Z,101227.34
2023-02-16T08:03:44.685Z,101231.47
2023-02-16T08:06:12.020Z,101232.28
2023-02-16T08:08:39.625Z,101224.03
2023-02-16T08:11:10.727Z,101225.56
2023-02-16T08:13:38.066Z,101239.56
2023-02-16T08:16:08.448Z,101239.31
2023-02-16T08:18:35.753Z,101240.91
2023-02-16T08:21:13.752Z,101236.34
2023-02-16T08:23:43.241Z,101239.50
2023-02-16T08:26:11.334Z,101235.84
2023-02-16T08:28:39.216Z,101241.69
2023-02-16T08:31:07.014Z,101235.31
2023-02-16T08:33:34.960Z,101228.66
2023-02-16T08:36:03.422Z,101225.53
2023-02-16T08:38:34.313Z,101222.72
2023-02-16T08:41:01.574Z,101234.31
2023-02-16T08:43:28.852Z,101219.59
2023-02-16T08:45:57.192Z,101225.34
2023-02-16T08:48:24.510Z,101215.19
2023-02-16T08:50:54.984Z,101229.97
2023-02-16T08:53:23.532Z,101223.13
2023-02-16T08:55:56.289Z,101227.47
2023-02-16T08:58:24.366Z,101214.38
2023-02-16T09:00:51.707Z,101202.63
2023-02-16T09:03:19.670Z,101204.59
2023-02-16T09:05:47.509Z,101211.16
2023-02-16T09:08:15.742Z,101209.81
2023-02-16T09:10:43.264Z,101207.81
2023-02-16T09:13:14.970Z,101207.03
2023-02-16T09:15:43.027Z,101206.91
2023-02-16T09:18:10.561Z,101198.63
2023-02-16T09:20:39.012Z,101196.56
2023-02-16T09:23:06.459Z,101200.16
2023-02-16T09:25:35.463Z,101197.69
2023-02-16T09:28:02.842Z,101198.38
2023-02-16T09:30:31.558Z,101196.72
2023-02-16T09:32:59.419Z,101206.50
2023-02-16T09:35:26.730Z,101197.94
2023-02-16T09:37:54.023Z,101191.31
2023-02-16T09:40:21.481Z,101197.25
2023-02-16T09:42:57.445Z,101189.69
2023-02-16T09:45:26.831Z,101181.94
2023-02-16T09:47:59.052Z,101190.97
2023-02-16T09:50:52.095Z,101183.38
2023-02-16T09:53:20.875Z,101186.09
2023-02-16T09:55:51.342Z,101182.03
2023-02-16T09:58:21.373Z,101190.78
2023-02-16T10:00:50.841Z,101190.94
2023-02-16T10:03:28.808Z,101185.91
2023-02-16T10:06:01.088Z,101195.56
2023-02-16T10:08:30.090Z,101194.03
2023-02-16T10:11:01.206Z,101192.81
2023-02-16T10:13:33.753Z,101197.94
2023-02-16T10:16:02.927Z,101200.56
2023-02-16T10:18:34.856Z,101198.63
2023-02-16T10:21:04.080Z,101200.00
2023-02-16T10:23:39.414Z,101183.91
2023-02-16T10:26:11.664Z,101187.53
2023-02-16T10:28:42.976Z,101186.09
2023-02-16T10:31:13.709Z,101184.50
2023-02-16T10:33:43.395Z,101188.38
2023-02-16T10:36:17.807Z,101182.69
2023-02-16T10:38:49.888Z,101185.59
2023-02-16T10:41:18.623Z,101176.06
2023-02-16T10:43:48.599Z,101183.06
2023-02-16T10:46:18.057Z,101181.84
2023-02-16T10:48:47.411Z,101169.69
2023-02-16T10:51:17.270Z,101161.63
2023-02-16T10:53:45.591Z,101167.22
2023-02-16T10:56:24.398Z,101158.59
2023-02-16T10:58:51.928Z,101158.28
2023-02-16T11:01:20.283Z,101158.06
2023-02-16T11:03:50.388Z,101154.53
2023-02-16T11:06:18.817Z,101156.28
2023-02-16T11:08:49.885Z,101159.03
2023-02-16T11:11:18.024Z,101144.13
2023-02-16T11:13:48.064Z,101143.41
2023-02-16T11:16:20.266Z,101148.13
2023-02-16T11:18:50.832Z,101138.53
2023-02-16T11:21:18.438Z,101143.94
2023-02-16T11:23:58.170Z,101133.75
2023-02-16T11:26:28.744Z,101148.09
2023-02-16T11:29:07.489Z,101131.41
2023-02-16T11:31:37.406Z,101121.09
2023-02-16T11:34:07.583Z,101131.03
2023-02-16T11:36:37.276Z,101123.88
2023-02-16T11:39:06.810Z,101129.88
2023-02-16T11:41:34.649Z,101119.00
2023-02-16T11:44:02.856Z,101121.03
2023-02-16T11:46:39.068Z,101116.41
2023-02-16T11:52:01.202Z,101105.22
2023-02-16T11:54:28.503Z,101107.53
2023-02-16T11:57:03.163Z,101101.63
2023-02-16T11:59:33.407Z,101097.06
2023-02-16T12:02:10.777Z,101092.25
2023-02-16T12:04:46.627Z,101094.00
2023-02-16T12:07:20.301Z,101093.25
2023-02-16T12:09:52.624Z,101098.69
2023-02-16T12:12:27.512Z,101088.59
2023-02-16T12:15:02.543Z,101089.13
2023-02-16T12:17:38.573Z,101088.47
2023-02-16T12:20:14.473Z,101084.34
2023-02-16T12:22:47.091Z,101082.00
2023-02-16T12:25:23.599Z,101076.91
2023-02-16T12:27:54.030Z,101069.06
2023-02-16T12:30:27.907Z,101064.34
2023-02-16T12:33:07.992Z,101072.69
2023-02-16T12:35:43.950Z,101071.13
2023-02-16T12:38:19.569Z,101075.00
2023-02-16T12:40:51.693Z,101066.97
2023-02-16T12:43:27.650Z,101062.66
2023-02-16T12:45:56.886Z,101064.03
2023-02-16T12:48:32.801Z,101063.91
2023-02-16T12:51:02.847Z,101060.72
2023-02-16T12:53:37.522Z,101063.25
2023-02-16T12:56:11.519Z,101061.44
2023-02-16T12:58:41.078Z,101054.88
2023-02-16T13:01:14.567Z,101060.88
2023-02-16T13:03:46.651Z,101063.16
2023-02-16T13:06:20.312Z,101051.69
2023-02-16T13:08:52.374Z,101045.78
2023-02-16T13:11:22.351Z,101055.06
2023-02-16T13:13:50.791Z,101043.91
2023-02-16T13:16:29.994Z,101047.56
2023-02-16T13:18:58.838Z,101046.81
2023-02-16T13:21:49.079Z,101042.59
2023-02-16T13:24:23.542Z,101040.03
2023-02-16T13:26:57.632Z,101040.50
2023-02-16T13:29:54.935Z,101042.13
2023-02-16T13:32:29.076Z,101036.44
2023-02-16T13:35:02.258Z,101033.63
2023-02-16T13:37:38.805Z,101033.88
2023-02-16T13:40:17.434Z,101035.72
2023-02-16T13:42:50.896Z,101032.00
2023-02-16T13:45:19.408Z,101035.66
2023-02-16T13:47:46.858Z,101034.31
2023-02-16T13:50:25.898Z,101028.41
2023-02-16T13:52:54.078Z,101040.16
2023-02-16T13:55:25.924Z,101023.25
2023-02-16T13:58:00.124Z,101031.03
2023-02-16T14:00:29.933Z,101036.00
2023-02-16T14:02:58.612Z,101038.75
2023-02-16T14:05:27.684Z,101038.16
2023-02-16T14:08:11.860Z,101044.81
2023-02-16T14:11:06.621Z,101042.53
2023-02-16T14:13:45.174Z,101039.56
2023-02-16T14:16:14.527Z,101037.13
2023-02-16T14:18:43.766Z,101038.44
2023-02-16T14:21:19.338Z,101037.66
2023-02-16T14:23:54.774Z,101038.69
2023-02-16T14:26:22.568Z,101047.03
2023-02-16T14:29:00.033Z,101050.19
2023-02-16T14:31:28.428Z,101050.47
2023-02-16T14:34:01.423Z,101046.63
2023-02-16T14:36:30.180Z,101043.16
2023-02-16T14:38:59.266Z,101046.22
2023-02-16T14:41:28.121Z,101049.06
2023-02-16T14:44:12.671Z,101050.47
2023-02-16T14:46:46.577Z,101050.13
2023-02-16T14:49:33.912Z,101053.81
2023-02-16T14:52:10.656Z,101052.03
2023-02-16T14:55:00.749Z,101053.25
2023-02-16T14:57:32.139Z,101043.69
2023-02-16T15:00:04.175Z,101050.50
2023-02-16T15:02:32.812Z,101046.91
2023-02-16T15:05:16.119Z,101046.47
2023-02-16T15:07:46.429Z,101054.69
2023-02-16T15:10:15.054Z,101050.50
2023-02-16T15:12:44.018Z,101054.38
2023-02-16T15:15:18.622Z,101050.63
2023-02-16T15:17:47.187Z,101047.59
2023-02-16T15:20:20.914Z,101055.09
2023-02-16T15:22:51.137Z,101043.19
2023-02-16T15:25:23.297Z,101048.09
2023-02-16T15:27:54.358Z,101041.50
2023-02-16T15:30:24.676Z,101042.56
2023-02-16T15:32:53.706Z,101046.94
2023-02-16T15:35:25.711Z,101042.47
2023-02-16T15:38:00.304Z,101040.28
2023-02-16T15:40:29.887Z,101039.41
2023-02-16T15:43:00.821Z,101042.28
2023-02-16T15:45:30.722Z,101039.28
2023-02-16T15:48:12.965Z,101044.53
2023-02-16T15:50:40.288Z,101039.16
2023-02-16T15:53:11.602Z,101038.59
2023-02-16T15:55:42.453Z,101036.94
2023-02-16T15:58:12.411Z,101035.88
2023-02-16T16:00:41.979Z,101035.94
2023-02-16T16:03:11.076Z,101031.31
2023-02-16T16:05:40.781Z,101038.22
2023-02-16T16:08:09.253Z,101031.22
2023-02-16T16:10:41.577Z,101035.69
2023-02-16T16:13:13.730Z,101037.38
2023-02-16T16:15:43.465Z,101038.22
2023-02-16T16:18:25.747Z,101041.25
2023-02-16T16:21:00.160Z,101043.06
2023-02-16T16:23:28.256Z,101032.50
2023-02-16T16:25:55.986Z,101044.56
2023-02-16T16:28:33.915Z,101032.69
2023-02-16T16:31:09.860Z,101046.44
2023-02-16T16:33:52.115Z,101042.06
2023-02-16T16:36:19.499Z,101039.94
2023-02-16T16:38:46.763Z,101044.81
2023-02-16T16:41:27.542Z,101034.84
2023-02-16T16:43:55.592Z,101045.47
2023-02-16T16:46:26.943Z,101036.94
2023-02-16T16:48:56.449Z,101041.06
2023-02-16T16:51:37.808Z,101044.44
2023-02-16T16:54:05.563Z,101043.78
2023-02-16T16:56:35.804Z,101038.69
2023-02-16T16:59:03.109Z,101045.69
2023-02-16T17:01:31.882Z,101047.44
2023-02-16T17:04:01.631Z,101039.66
2023-02-16T17:06:28.892Z,101041.63
2023-02-16T17:08:56.221Z,101035.38
2023-02-16T17:11:25.678Z,101030.25
2023-02-16T17:13:54.718Z,101026.84
2023-02-16T17:16:24.380Z,101033.16
2023-02-16T17:18:53.125Z,101039.63
2023-02-16T17:21:20.624Z,101040.44
2023-02-16T17:23:53.026Z,101034.28
2023-02-16T17:26:20.657Z,101038.72
2023-02-16T17:28:48.049Z,101036.34
2023-02-16T17:31:15.477Z,101030.09
2023-02-16T17:33:42.824Z,101034.19
2023-02-16T17:36:15.103Z,101033.53
2023-02-16T17:38:42.653Z,101028.38
2023-02-16T17:41:17.580Z,101031.56
2023-02-16T17:43:44.851Z,101021.75
2023-02-16T17:46:13.327Z,101018.22
2023-02-16T17:48:40.627Z,101017.41
2023-02-16T17:51:11.993Z,101020.03
2023-02-16T17:53:41.243Z,101011.94
2023-02-16T17:56:11.285Z,101010.25
2023-02-16T17:58:38.554Z,101006.41
2023-02-16T18:01:05.915Z,101009.06
2023-02-16T18:03:33.249Z,101012.09
2023-02-16T18:06:02.740Z,101020.59
2023-02-16T18:08:30.122Z,101020.06
2023-02-16T18:11:02.027Z,101011.88
2023-02-16T18:13:29.393Z,101012.69
2023-02-16T18:15:57.346Z,101021.50
2023-02-16T18:18:24.665Z,101025.66
2023-02-16T18:20:51.951Z,101016.97
2023-02-16T18:23:19.268Z,101027.00
2023-02-16T18:25:46.878Z,101026.53
2023-02-16T18:28:18.262Z,101028.38
2023-02-16T18:30:45.636Z,101030.91
2023-02-16T18:33:12.950Z,101016.91
2023-02-16T18:35:40.237Z,101030.31
2023-02-16T18:38:07.637Z,101032.31
2023-02-16T18:40:34.985Z,101032.78
2023-02-16T18:43:02.278Z,101031.63
2023-02-16T18:45:30.901Z,101031.38
2023-02-16T18:47:58.198Z,101037.19
2023-02-16T18:50:25.464Z,101030.94
2023-02-16T18:52:54.489Z,101041.19
2023-02-16T18:55:21.762Z,101036.94
2023-02-16T18:57:49.024Z,101036.56
2023-02-16T19:00:17.313Z,101034.66
2023-02-16T19:02:45.901Z,101030.16
2023-02-16T19:05:13.263Z,101031.16
2023-02-16T19:07:40.829Z,101037.63
2023-02-16T19:10:10.319Z,101040.41
2023-02-16T19:12:37.693Z,101053.03
2023-02-16T19:15:05.312Z,101053.38
2023-02-16T19:17:32.612Z,101058.03
2023-02-16T19:20:01.225Z,101059.03
2023-02-16T19:22:28.794Z,101059.00
2023-02-16T19:24:56.091Z,101059.75
2023-02-16T19:27:23.332Z,101045.47
2023-02-16T19:29:50.641Z,101051.75
2023-02-16T19:32:19.206Z,101040.72
2023-02-16T19:34:46.531Z,101034.25
2023-02-16T19:37:15.291Z,101033.16
2023-02-16T19:39:42.557Z,101025.69
2023-02-16T19:42:09.830Z,101025.47
2023-02-16T19:44:37.113Z,101023.63
2023-02-16T19:47:04.426Z,101023.78
2023-02-16T19:49:31.710Z,101029.59
2023-02-16T19:52:02.298Z,101020.00
2023-02-16T19:54:32.368Z,101019.84
2023-02-16T19:56:59.662Z,101017.03
2023-02-16T19:59:26.978Z,101020.53
2023-02-16T20:01:54.598Z,101024.34
2023-02-16T20:04:21.881Z,101025.31
2023-02-16T20:06:49.652Z,101018.81
2023-02-16T20:09:17.624Z,101021.47
2023-02-16T20:11:46.230Z,101026.06
2023-02-16T20:14:13.558Z,101016.06
2023-02-16T20:16:41.268Z,101012.22
2023-02-16T20:19:08.563Z,101012.53
2023-02-16T20:21:35.855Z,101018.75
2023-02-16T20:24:04.068Z,101016.06
2023-02-16T20:26:34.351Z,101016.00
2023-02-16T20:29:03.606Z,101018.06
2023-02-16T20:31:32.450Z,101015.69
2023-02-16T20:34:00.380Z,101013.94
2023-02-16T20:36:27.810Z,101021.59
2023-02-16T20:38:55.176Z,101022.19
2023-02-16T20:41:22.429Z,101015.44
2023-02-16T20:43:49.709Z,101021.50
2023-02-16T20:46:18.717Z,101023.09
2023-02-16T20:48:46.524Z,101018.75
2023-02-16T20:51:14.191Z,101023.16
2023-02-16T20:53:41.733Z,101017.53
2023-02-16T20:56:10.288Z,101014.03
2023-02-16T20:58:38.109Z,101005.56
2023-02-16T21:01:10.914Z,101013.38
2023-02-16T21:03:39.689Z,101010.88
2023-02-16T21:06:07.292Z,101004.56
2023-02-16T21:08:34.923Z,101006.94
2023-02-16T21:11:02.211Z,101009.38
2023-02-16T21:13:29.592Z,101004.81
2023-02-16T21:15:56.930Z,101003.53
2023-02-16T21:18:24.248Z,101002.78
2023-02-16T21:20:52.818Z,100996.53
2023-02-16T21:23:20.092Z,101000.75
2023-02-16T21:25:47.340Z,100984.75
2023-02-16T21:28:14.663Z,100990.75
2023-02-16T21:30:44.428Z,100988.13
2023-02-16T21:33:11.699Z,100981.59
2023-02-16T21:35:38.967Z,100983.63
2023-02-16T21:38:07.536Z,100983.34
2023-02-16T21:40:52.299Z,100985.09
2023-02-16T21:43:19.616Z,100969.28
2023-02-16T21:45:48.210Z,100966.94
2023-02-16T21:48:33.035Z,100963.91
2023-02-16T21:51:01.749Z,100961.75
2023-02-16T21:53:31.271Z,100961.09
2023-02-16T21:56:16.400Z,100961.53
2023-02-16T21:58:43.944Z,100952.91
2023-02-16T22:01:11.252Z,100956.66
2023-02-16T22:03:38.672Z,100946.78
2023-02-16T22:06:07.356Z,100947.59
2023-02-16T22:08:37.984Z,100948.13
2023-02-16T22:11:06.502Z,100948.63
2023-02-16T22:13:33.887Z,100950.88
2023-02-16T22:16:01.160Z,100943.03
2023-02-16T22:18:28.424Z,100953.69
2023-02-16T22:20:55.675Z,100948.06
2023-02-16T22:23:23.030Z,100948.03
2023-02-16T22:25:51.600Z,100942.81
2023-02-16T22:28:18.846Z,100947.34
2023-02-16T22:30:46.134Z,100934.69
2023-02-16T22:33:13.429Z,100932.91
2023-02-16T22:35:40.689Z,100928.03
2023-02-16T22:38:07.960Z,100932.16
2023-02-16T22:40:35.250Z,100927.22
2023-02-16T22:43:03.816Z,100927.22
2023-02-16T22:45:31.110Z,100924.56
2023-02-16T22:47:58.693Z,100922.56
2023-02-16T22:50:25.967Z,100919.28
2023-02-16T22:52:53.483Z,100920.75
2023-02-16T22:55:20.738Z,100911.00
2023-02-16T22:57:48.014Z,100912.84
2023-02-16T23:00:17.232Z,100914.00
2023-02-16T23:02:44.488Z,100897.13
2023-02-16T23:05:11.750Z,100891.94
2023-02-16T23:07:39.134Z,100889.00
2023-02-16T23:10:07.058Z,100885.28
2023-02-16T23:12:34.317Z,100884.66
2023-02-16T23:15:01.572Z,100876.53
2023-02-16T23:17:30.175Z,100870.47
2023-02-16T23:19:57.453Z,100871.09
2023-02-16T23:22:24.710Z,100868.63
2023-02-16T23:25:12.600Z,100870.19
2023-02-16T23:27:39.877Z,100864.06
2023-02-16T23:30:07.856Z,100862.22
2023-02-16T23:32:36.512Z,100869.47
2023-02-16T23:35:04.058Z,100858.69
2023-02-16T23:37:31.962Z,100854.50
2023-02-16T23:40:00.172Z,100857.22
2023-02-16T23:42:27.437Z,100851.28
2023-02-16T23:44:55.285Z,100860.13
2023-02-16T23:47:22.557Z,100850.28
2023-02-16T23:49:51.172Z,100843.03
2023-02-16T23:52:18.636Z,100843.63
2023-02-16T23:54:45.908Z,100840.03
2023-02-16T23:57:13.223Z,100828.19
2023-02-16T23:59:40.622Z,100831.19
